sensor_id;sensor_type;location;lat;lon;timestamp;temperature;humidity
39325;DHT22;25037;49.488;9.900;2022-08-21T00:01:39;19.40;75.30
39325;DHT22;25037;49.488;9.900;2022-08-21T00:04:06;19.30;75.30
39325;DHT22;25037;49.488;9.900;2022-08-21T00:06:32;19.30;75.30
39325;DHT22;25037;49.488;9.900;2022-08-21T00:08:59;19.20;75.20
39325;DHT22;25037;49.488;9.900;2022-08-21T00:11:24;19.20;75.20
39325;DHT22;25037;49.488;9.900;2022-08-21T00:13:52;19.20;75.10
39325;DHT22;25037;49.488;9.900;2022-08-21T00:16:18;19.10;75.10
39325;DHT22;25037;49.488;9.900;2022-08-21T00:18:43;19.10;75.10
39325;DHT22;25037;49.488;9.900;2022-08-21T00:21:13;19.00;75.10
39325;DHT22;25037;49.488;9.900;2022-08-21T00:23:39;19.00;75.10
39325;DHT22;25037;49.488;9.900;2022-08-21T00:26:05;19.00;75.10
39325;DHT22;25037;49.488;9.900;2022-08-21T00:28:31;19.00;75.10
39325;DHT22;25037;49.488;9.900;2022-08-21T00:30:58;18.90;75.20
39325;DHT22;25037;49.488;9.900;2022-08-21T00:33:24;18.90;75.30
39325;DHT22;25037;49.488;9.900;2022-08-21T00:35:50;18.90;75.30
39325;DHT22;25037;49.488;9.900;2022-08-21T00:38:16;18.90;75.40
39325;DHT22;25037;49.488;9.900;2022-08-21T00:40:46;18.90;75.50
39325;DHT22;25037;49.488;9.900;2022-08-21T00:43:15;18.90;75.50
39325;DHT22;25037;49.488;9.900;2022-08-21T00:45:41;18.90;75.40
39325;DHT22;25037;49.488;9.900;2022-08-21T00:48:07;18.90;75.30
39325;DHT22;25037;49.488;9.900;2022-08-21T00:50:36;18.80;75.20
39325;DHT22;25037;49.488;9.900;2022-08-21T00:53:04;18.80;75.10
39325;DHT22;25037;49.488;9.900;2022-08-21T00:55:31;18.80;75.20
39325;DHT22;25037;49.488;9.900;2022-08-21T00:57:59;18.80;75.30
39325;DHT22;25037;49.488;9.900;2022-08-21T01:00:29;18.80;75.20
39325;DHT22;25037;49.488;9.900;2022-08-21T01:02:57;18.80;75.30
39325;DHT22;25037;49.488;9.900;2022-08-21T01:05:23;18.80;75.30
39325;DHT22;25037;49.488;9.900;2022-08-21T01:07:49;18.80;75.40
39325;DHT22;25037;49.488;9.900;2022-08-21T01:10:15;18.80;75.30
39325;DHT22;25037;49.488;9.900;2022-08-21T01:12:41;18.70;75.30
39325;DHT22;25037;49.488;9.900;2022-08-21T01:15:11;18.70;75.20
39325;DHT22;25037;49.488;9.900;2022-08-21T01:17:38;18.70;75.10
39325;DHT22;25037;49.488;9.900;2022-08-21T01:20:06;18.70;75.00
39325;DHT22;25037;49.488;9.900;2022-08-21T01:22:32;18.60;74.80
39325;DHT22;25037;49.488;9.900;2022-08-21T01:24:58;18.50;74.70
39325;DHT22;25037;49.488;9.900;2022-08-21T01:27:23;18.50;74.70
39325;DHT22;25037;49.488;9.900;2022-08-21T01:29:57;18.40;74.80
39325;DHT22;25037;49.488;9.900;2022-08-21T01:32:24;18.40;74.80
39325;DHT22;25037;49.488;9.900;2022-08-21T01:34:51;18.30;74.80
39325;DHT22;25037;49.488;9.900;2022-08-21T01:37:18;18.30;74.70
39325;DHT22;25037;49.488;9.900;2022-08-21T01:39:45;18.20;74.70
39325;DHT22;25037;49.488;9.900;2022-08-21T01:42:10;18.20;74.70
39325;DHT22;25037;49.488;9.900;2022-08-21T01:44:36;18.20;74.60
39325;DHT22;25037;49.488;9.900;2022-08-21T01:47:04;18.10;74.50
39325;DHT22;25037;49.488;9.900;2022-08-21T01:49:30;18.10;74.60
39325;DHT22;25037;49.488;9.900;2022-08-21T01:51:56;18.00;74.60
39325;DHT22;25037;49.488;9.900;2022-08-21T01:54:22;17.90;74.70
39325;DHT22;25037;49.488;9.900;2022-08-21T01:56:50;17.90;74.70
39325;DHT22;25037;49.488;9.900;2022-08-21T01:59:16;17.80;74.70
39325;DHT22;25037;49.488;9.900;2022-08-21T02:01:42;17.80;74.70
39325;DHT22;25037;49.488;9.900;2022-08-21T02:04:09;17.80;74.80
39325;DHT22;25037;49.488;9.900;2022-08-21T02:06:35;17.80;74.90
39325;DHT22;25037;49.488;9.900;2022-08-21T02:09:03;17.70;74.80
39325;DHT22;25037;49.488;9.900;2022-08-21T02:11:29;17.70;74.90
39325;DHT22;25037;49.488;9.900;2022-08-21T02:13:55;17.70;74.90
39325;DHT22;25037;49.488;9.900;2022-08-21T02:16:20;17.70;74.90
39325;DHT22;25037;49.488;9.900;2022-08-21T02:18:46;17.70;74.90
39325;DHT22;25037;49.488;9.900;2022-08-21T02:21:12;17.60;74.80
39325;DHT22;25037;49.488;9.900;2022-08-21T02:23:37;17.60;74.70
39325;DHT22;25037;49.488;9.900;2022-08-21T02:26:06;17.60;74.70
39325;DHT22;25037;49.488;9.900;2022-08-21T02:28:32;17.50;74.60
39325;DHT22;25037;49.488;9.900;2022-08-21T02:30:58;17.50;74.50
39325;DHT22;25037;49.488;9.900;2022-08-21T02:33:24;17.50;74.40
39325;DHT22;25037;49.488;9.900;2022-08-21T02:35:50;17.40;74.40
39325;DHT22;25037;49.488;9.900;2022-08-21T02:38:22;17.30;74.30
39325;DHT22;25037;49.488;9.900;2022-08-21T02:40:49;17.30;74.40
39325;DHT22;25037;49.488;9.900;2022-08-21T02:43:16;17.30;74.40
39325;DHT22;25037;49.488;9.900;2022-08-21T02:45:43;17.30;74.30
39325;DHT22;25037;49.488;9.900;2022-08-21T02:48:12;17.20;74.30
39325;DHT22;25037;49.488;9.900;2022-08-21T02:50:44;17.20;74.30
39325;DHT22;25037;49.488;9.900;2022-08-21T02:53:12;17.10;74.20
39325;DHT22;25037;49.488;9.900;2022-08-21T02:55:39;17.10;74.20
39325;DHT22;25037;49.488;9.900;2022-08-21T02:58:07;17.00;74.20
39325;DHT22;25037;49.488;9.900;2022-08-21T03:00:33;17.00;74.20
39325;DHT22;25037;49.488;9.900;2022-08-21T03:03:00;17.00;74.20
39325;DHT22;25037;49.488;9.900;2022-08-21T03:05:27;17.00;74.10
39325;DHT22;25037;49.488;9.900;2022-08-21T03:07:53;16.90;74.10
39325;DHT22;25037;49.488;9.900;2022-08-21T03:10:21;16.80;74.00
39325;DHT22;25037;49.488;9.900;2022-08-21T03:12:47;16.80;74.10
39325;DHT22;25037;49.488;9.900;2022-08-21T03:15:15;16.80;74.10
39325;DHT22;25037;49.488;9.900;2022-08-21T03:17:43;16.80;74.20
39325;DHT22;25037;49.488;9.900;2022-08-21T03:20:09;16.80;74.20
39325;DHT22;25037;49.488;9.900;2022-08-21T03:22:34;16.80;74.10
39325;DHT22;25037;49.488;9.900;2022-08-21T03:25:01;16.70;74.10
39325;DHT22;25037;49.488;9.900;2022-08-21T03:27:27;16.70;74.10
39325;DHT22;25037;49.488;9.900;2022-08-21T03:29:53;16.70;74.20
39325;DHT22;25037;49.488;9.900;2022-08-21T03:32:19;16.70;74.10
39325;DHT22;25037;49.488;9.900;2022-08-21T03:34:45;16.70;74.10
39325;DHT22;25037;49.488;9.900;2022-08-21T03:37:12;16.70;74.10
39325;DHT22;25037;49.488;9.900;2022-08-21T03:39:38;16.60;74.10
39325;DHT22;25037;49.488;9.900;2022-08-21T03:42:04;16.60;74.20
39325;DHT22;25037;49.488;9.900;2022-08-21T03:44:31;16.60;74.30
39325;DHT22;25037;49.488;9.900;2022-08-21T03:46:57;16.60;74.40
39325;DHT22;25037;49.488;9.900;2022-08-21T03:49:24;16.60;74.40
39325;DHT22;25037;49.488;9.900;2022-08-21T03:51:50;16.60;74.40
39325;DHT22;25037;49.488;9.900;2022-08-21T03:54:15;16.60;74.20
39325;DHT22;25037;49.488;9.900;2022-08-21T03:56:41;16.60;74.20
39325;DHT22;25037;49.488;9.900;2022-08-21T03:59:07;16.50;74.10
39325;DHT22;25037;49.488;9.900;2022-08-21T04:01:33;16.50;74.10
39325;DHT22;25037;49.488;9.900;2022-08-21T04:03:59;16.40;74.10
39325;DHT22;25037;49.488;9.900;2022-08-21T04:06:25;16.40;74.10
39325;DHT22;25037;49.488;9.900;2022-08-21T04:08:52;16.40;74.10
39325;DHT22;25037;49.488;9.900;2022-08-21T04:11:17;16.30;74.10
39325;DHT22;25037;49.488;9.900;2022-08-21T04:13:43;16.30;74.10
39325;DHT22;25037;49.488;9.900;2022-08-21T04:16:09;16.30;74.10
39325;DHT22;25037;49.488;9.900;2022-08-21T04:18:34;16.20;74.10
39325;DHT22;25037;49.488;9.900;2022-08-21T04:21:01;16.20;74.10
39325;DHT22;25037;49.488;9.900;2022-08-21T04:23:28;16.20;74.00
39325;DHT22;25037;49.488;9.900;2022-08-21T04:25:55;16.10;74.00
39325;DHT22;25037;49.488;9.900;2022-08-21T04:28:22;16.10;74.00
39325;DHT22;25037;49.488;9.900;2022-08-21T04:30:48;16.10;74.00
39325;DHT22;25037;49.488;9.900;2022-08-21T04:33:15;16.10;74.10
39325;DHT22;25037;49.488;9.900;2022-08-21T04:35:41;16.10;74.10
39325;DHT22;25037;49.488;9.900;2022-08-21T04:38:07;16.10;74.10
39325;DHT22;25037;49.488;9.900;2022-08-21T04:40:33;16.10;74.10
39325;DHT22;25037;49.488;9.900;2022-08-21T04:43:04;16.10;74.00
39325;DHT22;25037;49.488;9.900;2022-08-21T04:45:32;16.10;73.90
39325;DHT22;25037;49.488;9.900;2022-08-21T04:47:59;16.10;73.80
39325;DHT22;25037;49.488;9.900;2022-08-21T04:50:36;16.10;73.80
39325;DHT22;25037;49.488;9.900;2022-08-21T04:53:05;16.20;73.70
39325;DHT22;25037;49.488;9.900;2022-08-21T04:55:32;16.20;73.60
39325;DHT22;25037;49.488;9.900;2022-08-21T04:57:59;16.30;73.50
39325;DHT22;25037;49.488;9.900;2022-08-21T05:00:25;16.30;73.40
39325;DHT22;25037;49.488;9.900;2022-08-21T05:02:52;16.40;73.20
39325;DHT22;25037;49.488;9.900;2022-08-21T05:05:22;16.40;73.10
39325;DHT22;25037;49.488;9.900;2022-08-21T05:07:48;16.50;73.00
39325;DHT22;25037;49.488;9.900;2022-08-21T05:10:15;16.50;72.80
39325;DHT22;25037;49.488;9.900;2022-08-21T05:12:42;16.60;72.60
39325;DHT22;25037;49.488;9.900;2022-08-21T05:15:09;16.60;72.50
39325;DHT22;25037;49.488;9.900;2022-08-21T05:17:34;16.70;72.30
39325;DHT22;25037;49.488;9.900;2022-08-21T05:20:00;16.70;72.20
39325;DHT22;25037;49.488;9.900;2022-08-21T05:22:28;16.80;72.20
39325;DHT22;25037;49.488;9.900;2022-08-21T05:24:53;16.80;72.10
39325;DHT22;25037;49.488;9.900;2022-08-21T05:27:19;16.90;72.00
39325;DHT22;25037;49.488;9.900;2022-08-21T05:29:44;17.00;71.90
39325;DHT22;25037;49.488;9.900;2022-08-21T05:32:11;17.10;71.80
39325;DHT22;25037;49.488;9.900;2022-08-21T05:34:37;17.20;71.60
39325;DHT22;25037;49.488;9.900;2022-08-21T05:37:03;17.30;71.50
39325;DHT22;25037;49.488;9.900;2022-08-21T05:39:29;17.30;71.30
39325;DHT22;25037;49.488;9.900;2022-08-21T05:41:55;17.40;71.10
39325;DHT22;25037;49.488;9.900;2022-08-21T05:44:21;17.40;71.00
39325;DHT22;25037;49.488;9.900;2022-08-21T05:46:46;17.50;71.00
39325;DHT22;25037;49.488;9.900;2022-08-21T05:49:12;17.60;70.80
39325;DHT22;25037;49.488;9.900;2022-08-21T05:51:39;17.70;70.60
39325;DHT22;25037;49.488;9.900;2022-08-21T05:54:05;17.90;70.50
39325;DHT22;25037;49.488;9.900;2022-08-21T05:56:31;18.30;69.90
39325;DHT22;25037;49.488;9.900;2022-08-21T05:58:56;18.70;69.10
39325;DHT22;25037;49.488;9.900;2022-08-21T06:01:22;19.00;68.30
39325;DHT22;25037;49.488;9.900;2022-08-21T06:03:47;21.10;63.40
39325;DHT22;25037;49.488;9.900;2022-08-21T06:06:13;23.90;56.60
39325;DHT22;25037;49.488;9.900;2022-08-21T06:08:39;25.50;52.90
39325;DHT22;25037;49.488;9.900;2022-08-21T06:11:06;26.00;51.90
39325;DHT22;25037;49.488;9.900;2022-08-21T06:13:32;25.50;52.90
39325;DHT22;25037;49.488;9.900;2022-08-21T06:16:09;25.00;54.80
39325;DHT22;25037;49.488;9.900;2022-08-21T06:18:36;24.70;54.50
39325;DHT22;25037;49.488;9.900;2022-08-21T06:21:02;24.30;55.90
39325;DHT22;25037;49.488;9.900;2022-08-21T06:23:27;24.10;56.80
39325;DHT22;25037;49.488;9.900;2022-08-21T06:25:53;23.90;57.10
39325;DHT22;25037;49.488;9.900;2022-08-21T06:28:18;23.80;57.10
39325;DHT22;25037;49.488;9.900;2022-08-21T06:30:44;23.90;57.20
39325;DHT22;25037;49.488;9.900;2022-08-21T06:33:10;23.90;57.10
39325;DHT22;25037;49.488;9.900;2022-08-21T06:35:35;24.00;56.60
39325;DHT22;25037;49.488;9.900;2022-08-21T06:38:01;24.20;56.10
39325;DHT22;25037;49.488;9.900;2022-08-21T06:40:27;24.40;55.60
39325;DHT22;25037;49.488;9.900;2022-08-21T06:42:53;24.50;55.20
39325;DHT22;25037;49.488;9.900;2022-08-21T06:45:19;24.70;54.80
39325;DHT22;25037;49.488;9.900;2022-08-21T06:47:45;24.80;54.40
39325;DHT22;25037;49.488;9.900;2022-08-21T06:50:10;25.00;53.70
39325;DHT22;25037;49.488;9.900;2022-08-21T06:52:37;25.00;53.80
39325;DHT22;25037;49.488;9.900;2022-08-21T06:55:04;25.20;53.80
39325;DHT22;25037;49.488;9.900;2022-08-21T06:57:31;25.30;53.20
39325;DHT22;25037;49.488;9.900;2022-08-21T06:59:56;25.40;53.10
39325;DHT22;25037;49.488;9.900;2022-08-21T07:02:22;25.50;53.00
39325;DHT22;25037;49.488;9.900;2022-08-21T07:04:47;25.60;52.60
39325;DHT22;25037;49.488;9.900;2022-08-21T07:07:13;25.80;52.10
39325;DHT22;25037;49.488;9.900;2022-08-21T07:09:39;25.90;51.80
39325;DHT22;25037;49.488;9.900;2022-08-21T07:12:05;26.00;51.80
39325;DHT22;25037;49.488;9.900;2022-08-21T07:14:30;26.10;51.80
39325;DHT22;25037;49.488;9.900;2022-08-21T07:16:56;26.30;51.50
39325;DHT22;25037;49.488;9.900;2022-08-21T07:19:21;26.40;51.00
39325;DHT22;25037;49.488;9.900;2022-08-21T07:21:47;26.60;50.90
39325;DHT22;25037;49.488;9.900;2022-08-21T07:24:13;26.70;50.50
39325;DHT22;25037;49.488;9.900;2022-08-21T07:26:39;26.80;50.00
39325;DHT22;25037;49.488;9.900;2022-08-21T07:29:05;27.00;50.20
39325;DHT22;25037;49.488;9.900;2022-08-21T07:31:31;27.10;49.70
39325;DHT22;25037;49.488;9.900;2022-08-21T07:33:57;27.20;49.50
39325;DHT22;25037;49.488;9.900;2022-08-21T07:36:22;27.30;49.10
39325;DHT22;25037;49.488;9.900;2022-08-21T07:38:48;27.30;49.10
39325;DHT22;25037;49.488;9.900;2022-08-21T07:41:17;27.40;49.00
39325;DHT22;25037;49.488;9.900;2022-08-21T07:43:43;27.40;48.30
39325;DHT22;25037;49.488;9.900;2022-08-21T07:46:09;27.50;48.20
39325;DHT22;25037;49.488;9.900;2022-08-21T07:48:34;27.50;48.20
39325;DHT22;25037;49.488;9.900;2022-08-21T07:51:04;27.60;48.20
39325;DHT22;25037;49.488;9.900;2022-08-21T07:53:30;27.80;47.80
39325;DHT22;25037;49.488;9.900;2022-08-21T07:55:58;27.90;47.60
39325;DHT22;25037;49.488;9.900;2022-08-21T07:58:24;28.00;47.30
39325;DHT22;25037;49.488;9.900;2022-08-21T08:00:49;28.20;47.20
39325;DHT22;25037;49.488;9.900;2022-08-21T08:03:15;28.30;46.90
39325;DHT22;25037;49.488;9.900;2022-08-21T08:05:40;28.30;46.50
39325;DHT22;25037;49.488;9.900;2022-08-21T08:08:06;28.40;46.20
39325;DHT22;25037;49.488;9.900;2022-08-21T08:10:32;28.40;46.00
39325;DHT22;25037;49.488;9.900;2022-08-21T08:12:58;28.50;45.90
39325;DHT22;25037;49.488;9.900;2022-08-21T08:15:25;28.70;46.00
39325;DHT22;25037;49.488;9.900;2022-08-21T08:17:52;28.80;45.50
39325;DHT22;25037;49.488;9.900;2022-08-21T08:20:18;28.80;45.30
39325;DHT22;25037;49.488;9.900;2022-08-21T08:22:45;28.80;44.90
39325;DHT22;25037;49.488;9.900;2022-08-21T08:25:12;28.80;44.80
39325;DHT22;25037;49.488;9.900;2022-08-21T08:27:39;28.80;45.00
39325;DHT22;25037;49.488;9.900;2022-08-21T08:30:06;28.70;45.20
39325;DHT22;25037;49.488;9.900;2022-08-21T08:32:32;28.80;44.60
39325;DHT22;25037;49.488;9.900;2022-08-21T08:34:58;28.90;44.70
39325;DHT22;25037;49.488;9.900;2022-08-21T08:37:24;28.90;44.80
39325;DHT22;25037;49.488;9.900;2022-08-21T08:39:50;29.00;44.40
39325;DHT22;25037;49.488;9.900;2022-08-21T08:42:29;29.10;44.50
39325;DHT22;25037;49.488;9.900;2022-08-21T08:45:13;29.20;44.30
39325;DHT22;25037;49.488;9.900;2022-08-21T08:47:47;29.30;44.10
39325;DHT22;25037;49.488;9.900;2022-08-21T08:50:21;29.40;44.20
39325;DHT22;25037;49.488;9.900;2022-08-21T08:52:52;29.60;44.10
39325;DHT22;25037;49.488;9.900;2022-08-21T08:55:22;29.70;43.60
39325;DHT22;25037;49.488;9.900;2022-08-21T08:57:50;29.70;43.40
39325;DHT22;25037;49.488;9.900;2022-08-21T09:00:20;29.80;43.50
39325;DHT22;25037;49.488;9.900;2022-08-21T09:02:46;30.00;42.90
39325;DHT22;25037;49.488;9.900;2022-08-21T09:05:25;30.00;43.20
39325;DHT22;25037;49.488;9.900;2022-08-21T09:08:01;30.10;42.80
39325;DHT22;25037;49.488;9.900;2022-08-21T09:10:57;30.20;42.90
39325;DHT22;25037;49.488;9.900;2022-08-21T09:19:12;30.50;42.40
39325;DHT22;25037;49.488;9.900;2022-08-21T09:27:07;30.60;41.80
39325;DHT22;25037;49.488;9.900;2022-08-21T09:29:36;30.60;41.70
39325;DHT22;25037;49.488;9.900;2022-08-21T09:32:11;30.60;41.70
39325;DHT22;25037;49.488;9.900;2022-08-21T09:34:40;30.70;41.00
39325;DHT22;25037;49.488;9.900;2022-08-21T09:37:16;30.70;41.50
39325;DHT22;25037;49.488;9.900;2022-08-21T09:39:43;30.80;40.90
39325;DHT22;25037;49.488;9.900;2022-08-21T09:42:09;30.90;40.50
39325;DHT22;25037;49.488;9.900;2022-08-21T09:44:38;31.00;40.00
39325;DHT22;25037;49.488;9.900;2022-08-21T09:47:10;31.00;40.20
39325;DHT22;25037;49.488;9.900;2022-08-21T09:49:39;31.10;40.80
39325;DHT22;25037;49.488;9.900;2022-08-21T09:52:20;31.30;40.50
39325;DHT22;25037;49.488;9.900;2022-08-21T09:54:51;31.10;40.80
39325;DHT22;25037;49.488;9.900;2022-08-21T09:57:27;30.90;41.20
39325;DHT22;25037;49.488;9.900;2022-08-21T10:00:26;31.20;40.80
39325;DHT22;25037;49.488;9.900;2022-08-21T10:02:52;31.40;40.30
39325;DHT22;25037;49.488;9.900;2022-08-21T10:05:24;31.30;40.30
39325;DHT22;25037;49.488;9.900;2022-08-21T10:07:51;31.20;40.40
39325;DHT22;25037;49.488;9.900;2022-08-21T10:10:20;31.30;39.90
39325;DHT22;25037;49.488;9.900;2022-08-21T10:15:51;31.30;38.20
39325;DHT22;25037;49.488;9.900;2022-08-21T10:18:41;31.10;37.90
39325;DHT22;25037;49.488;9.900;2022-08-21T10:21:10;31.20;38.20
39325;DHT22;25037;49.488;9.900;2022-08-21T10:23:48;31.50;37.60
39325;DHT22;25037;49.488;9.900;2022-08-21T10:29:12;31.90;36.20
39325;DHT22;25037;49.488;9.900;2022-08-21T10:34:55;31.90;35.30
39325;DHT22;25037;49.488;9.900;2022-08-21T10:42:38;31.00;36.70
39325;DHT22;25037;49.488;9.900;2022-08-21T10:45:21;30.90;37.40
39325;DHT22;25037;49.488;9.900;2022-08-21T10:47:56;31.00;37.80
39325;DHT22;25037;49.488;9.900;2022-08-21T10:50:42;31.20;37.20
39325;DHT22;25037;49.488;9.900;2022-08-21T10:55:55;31.50;36.00
39325;DHT22;25037;49.488;9.900;2022-08-21T11:00:58;31.70;35.90
39325;DHT22;25037;49.488;9.900;2022-08-21T11:06:31;31.90;33.90
39325;DHT22;25037;49.488;9.900;2022-08-21T11:09:21;31.70;35.00
39325;DHT22;25037;49.488;9.900;2022-08-21T11:12:07;31.50;34.60
39325;DHT22;25037;49.488;9.900;2022-08-21T11:15:33;31.40;34.70
39325;DHT22;25037;49.488;9.900;2022-08-21T11:17:37;31.50;33.90
39325;DHT22;25037;49.488;9.900;2022-08-21T11:23:22;31.80;34.20
39325;DHT22;25037;49.488;9.900;2022-08-21T11:25:58;32.00;33.80
39325;DHT22;25037;49.488;9.900;2022-08-21T11:28:33;31.80;33.70
39325;DHT22;25037;49.488;9.900;2022-08-21T11:33:59;31.50;34.20
39325;DHT22;25037;49.488;9.900;2022-08-21T11:39:16;31.20;34.80
39325;DHT22;25037;49.488;9.900;2022-08-21T11:42:17;31.10;35.10
39325;DHT22;25037;49.488;9.900;2022-08-21T11:45:02;30.90;34.90
39325;DHT22;25037;49.488;9.900;2022-08-21T11:50:21;30.70;35.50
39325;DHT22;25037;49.488;9.900;2022-08-21T11:53:04;30.40;36.10
39325;DHT22;25037;49.488;9.900;2022-08-21T11:55:47;30.30;36.20
39325;DHT22;25037;49.488;9.900;2022-08-21T11:58:16;30.20;36.00
39325;DHT22;25037;49.488;9.900;2022-08-21T12:00:49;30.20;35.60
39325;DHT22;25037;49.488;9.900;2022-08-21T12:03:25;30.30;34.70
39325;DHT22;25037;49.488;9.900;2022-08-21T12:05:55;30.50;34.40
39325;DHT22;25037;49.488;9.900;2022-08-21T12:08:36;30.70;34.40
39325;DHT22;25037;49.488;9.900;2022-08-21T12:13:57;31.10;33.50
39325;DHT22;25037;49.488;9.900;2022-08-21T12:16:39;31.10;33.60
39325;DHT22;25037;49.488;9.900;2022-08-21T12:19:10;31.00;34.10
39325;DHT22;25037;49.488;9.900;2022-08-21T12:21:58;31.10;34.00
39325;DHT22;25037;49.488;9.900;2022-08-21T12:26:54;31.40;32.50
39325;DHT22;25037;49.488;9.900;2022-08-21T12:29:26;31.50;32.10
39325;DHT22;25037;49.488;9.900;2022-08-21T12:31:57;31.40;31.20
39325;DHT22;25037;49.488;9.900;2022-08-21T12:34:29;31.50;32.00
39325;DHT22;25037;49.488;9.900;2022-08-21T12:37:00;31.70;31.20
39325;DHT22;25037;49.488;9.900;2022-08-21T12:39:29;31.80;31.00
39325;DHT22;25037;49.488;9.900;2022-08-21T12:42:18;31.80;31.50
39325;DHT22;25037;49.488;9.900;2022-08-21T12:44:58;31.90;31.40
39325;DHT22;25037;49.488;9.900;2022-08-21T12:47:36;32.10;30.80
39325;DHT22;25037;49.488;9.900;2022-08-21T12:50:21;32.00;30.60
39325;DHT22;25037;49.488;9.900;2022-08-21T12:52:57;32.00;30.60
39325;DHT22;25037;49.488;9.900;2022-08-21T12:55:30;32.10;30.70
39325;DHT22;25037;49.488;9.900;2022-08-21T12:57:56;32.10;30.60
39325;DHT22;25037;49.488;9.900;2022-08-21T13:00:24;32.20;30.70
39325;DHT22;25037;49.488;9.900;2022-08-21T13:02:51;32.40;30.30
39325;DHT22;25037;49.488;9.900;2022-08-21T13:07:53;32.50;29.50
39325;DHT22;25037;49.488;9.900;2022-08-21T13:12:44;32.40;29.20
39325;DHT22;25037;49.488;9.900;2022-08-21T13:15:11;32.40;29.10
39325;DHT22;25037;49.488;9.900;2022-08-21T13:17:41;32.40;29.10
39325;DHT22;25037;49.488;9.900;2022-08-21T13:20:23;32.40;28.90
39325;DHT22;25037;49.488;9.900;2022-08-21T13:22:49;32.50;28.60
39325;DHT22;25037;49.488;9.900;2022-08-21T13:25:18;32.40;29.60
39325;DHT22;25037;49.488;9.900;2022-08-21T13:28:17;32.40;29.30
39325;DHT22;25037;49.488;9.900;2022-08-21T13:30:43;32.60;28.90
39325;DHT22;25037;49.488;9.900;2022-08-21T13:33:12;32.60;28.70
39325;DHT22;25037;49.488;9.900;2022-08-21T13:35:51;32.60;28.80
39325;DHT22;25037;49.488;9.900;2022-08-21T13:38:25;32.70;28.60
39325;DHT22;25037;49.488;9.900;2022-08-21T13:40:55;32.70;28.70
39325;DHT22;25037;49.488;9.900;2022-08-21T13:43:27;32.80;28.60
39325;DHT22;25037;49.488;9.900;2022-08-21T13:45:55;33.00;28.50
39325;DHT22;25037;49.488;9.900;2022-08-21T13:48:23;33.10;28.50
39325;DHT22;25037;49.488;9.900;2022-08-21T13:50:50;33.10;28.30
39325;DHT22;25037;49.488;9.900;2022-08-21T13:55:49;33.10;28.60
39325;DHT22;25037;49.488;9.900;2022-08-21T13:58:28;33.10;28.60
39325;DHT22;25037;49.488;9.900;2022-08-21T14:00:55;33.00;29.10
39325;DHT22;25037;49.488;9.900;2022-08-21T14:03:34;33.10;28.90
39325;DHT22;25037;49.488;9.900;2022-08-21T14:06:02;33.10;28.50
39325;DHT22;25037;49.488;9.900;2022-08-21T14:08:34;33.00;29.00
39325;DHT22;25037;49.488;9.900;2022-08-21T14:11:01;33.00;28.50
39325;DHT22;25037;49.488;9.900;2022-08-21T14:16:01;32.60;29.20
39325;DHT22;25037;49.488;9.900;2022-08-21T14:18:28;32.40;29.60
39325;DHT22;25037;49.488;9.900;2022-08-21T14:21:08;32.30;29.50
39325;DHT22;25037;49.488;9.900;2022-08-21T14:23:34;32.30;29.50
39325;DHT22;25037;49.488;9.900;2022-08-21T14:26:03;32.20;29.70
39325;DHT22;25037;49.488;9.900;2022-08-21T14:28:32;32.20;29.80
39325;DHT22;25037;49.488;9.900;2022-08-21T14:31:14;32.10;29.80
39325;DHT22;25037;49.488;9.900;2022-08-21T14:33:40;32.20;29.90
39325;DHT22;25037;49.488;9.900;2022-08-21T14:36:06;32.20;29.90
39325;DHT22;25037;49.488;9.900;2022-08-21T14:38:31;32.20;29.80
39325;DHT22;25037;49.488;9.900;2022-08-21T14:43:41;32.20;30.00
39325;DHT22;25037;49.488;9.900;2022-08-21T14:46:07;32.20;29.80
39325;DHT22;25037;49.488;9.900;2022-08-21T14:48:33;32.20;30.20
39325;DHT22;25037;49.488;9.900;2022-08-21T14:50:58;32.20;30.10
39325;DHT22;25037;49.488;9.900;2022-08-21T14:53:24;32.20;30.00
39325;DHT22;25037;49.488;9.900;2022-08-21T14:55:49;32.30;30.30
39325;DHT22;25037;49.488;9.900;2022-08-21T14:58:31;32.40;29.90
39325;DHT22;25037;49.488;9.900;2022-08-21T15:00:57;32.40;29.90
39325;DHT22;25037;49.488;9.900;2022-08-21T15:03:24;32.20;29.60
39325;DHT22;25037;49.488;9.900;2022-08-21T15:05:50;32.10;30.00
39325;DHT22;25037;49.488;9.900;2022-08-21T15:08:17;31.80;30.20
39325;DHT22;25037;49.488;9.900;2022-08-21T15:10:43;31.80;30.20
39325;DHT22;25037;49.488;9.900;2022-08-21T15:13:09;31.80;30.20
39325;DHT22;25037;49.488;9.900;2022-08-21T15:15:44;31.80;30.10
39325;DHT22;25037;49.488;9.900;2022-08-21T15:18:10;31.90;30.60
39325;DHT22;25037;49.488;9.900;2022-08-21T15:20:36;32.00;30.10
39325;DHT22;25037;49.488;9.900;2022-08-21T15:23:03;32.00;29.70
39325;DHT22;25037;49.488;9.900;2022-08-21T15:25:29;32.00;29.60
39325;DHT22;25037;49.488;9.900;2022-08-21T15:27:54;32.10;29.50
39325;DHT22;25037;49.488;9.900;2022-08-21T15:30:20;32.10;29.50
39325;DHT22;25037;49.488;9.900;2022-08-21T15:32:46;32.10;29.40
39325;DHT22;25037;49.488;9.900;2022-08-21T15:35:11;32.10;29.40
39325;DHT22;25037;49.488;9.900;2022-08-21T15:37:37;32.10;29.60
39325;DHT22;25037;49.488;9.900;2022-08-21T15:40:03;32.10;29.90
39325;DHT22;25037;49.488;9.900;2022-08-21T15:42:31;32.00;29.70
39325;DHT22;25037;49.488;9.900;2022-08-21T15:44:57;32.00;29.70
39325;DHT22;25037;49.488;9.900;2022-08-21T15:47:29;31.80;29.70
39325;DHT22;25037;49.488;9.900;2022-08-21T15:49:56;31.80;29.70
39325;DHT22;25037;49.488;9.900;2022-08-21T15:52:21;31.40;30.00
39325;DHT22;25037;49.488;9.900;2022-08-21T15:54:48;31.20;30.20
39325;DHT22;25037;49.488;9.900;2022-08-21T15:57:16;31.10;30.40
39325;DHT22;25037;49.488;9.900;2022-08-21T15:59:51;31.10;30.50
39325;DHT22;25037;49.488;9.900;2022-08-21T16:02:27;31.00;30.50
39325;DHT22;25037;49.488;9.900;2022-08-21T16:04:53;30.90;30.70
39325;DHT22;25037;49.488;9.900;2022-08-21T16:07:19;30.80;30.70
39325;DHT22;25037;49.488;9.900;2022-08-21T16:09:45;30.80;30.70
39325;DHT22;25037;49.488;9.900;2022-08-21T16:12:22;30.70;30.60
39325;DHT22;25037;49.488;9.900;2022-08-21T16:14:48;30.70;30.80
39325;DHT22;25037;49.488;9.900;2022-08-21T16:17:15;30.70;30.80
39325;DHT22;25037;49.488;9.900;2022-08-21T16:19:41;30.60;30.70
39325;DHT22;25037;49.488;9.900;2022-08-21T16:22:07;30.50;30.90
39325;DHT22;25037;49.488;9.900;2022-08-21T16:24:33;30.50;31.20
39325;DHT22;25037;49.488;9.900;2022-08-21T16:26:58;30.40;31.30
39325;DHT22;25037;49.488;9.900;2022-08-21T16:29:28;30.40;31.30
39325;DHT22;25037;49.488;9.900;2022-08-21T16:31:55;30.30;31.50
39325;DHT22;25037;49.488;9.900;2022-08-21T16:34:21;30.20;31.80
39325;DHT22;25037;49.488;9.900;2022-08-21T16:36:46;30.20;31.70
39325;DHT22;25037;49.488;9.900;2022-08-21T16:39:12;30.10;31.60
39325;DHT22;25037;49.488;9.900;2022-08-21T16:41:38;30.10;31.70
39325;DHT22;25037;49.488;9.900;2022-08-21T16:44:05;30.00;31.60